Time;durP1;ratioP1;P1;durP2;ratioP2;P2;SDS_P1;SDS_P2;PMS_P1;PMS_P2;Temp;Humidity;BMP_temperature;BMP_pressure;BME280_temperature;BME280_humidity;BME280_pressure;Samples;Min_cycle;Max_cycle;Signal;HPM_P1;HPM_P2
2021/07/04 00:02:14;;;;;;;6.53;4.62;;;;;;;21.16;68.81;98474.23;1684002;83;21162;-42
2021/07/04 00:04:40;;;;;;;5.47;4.97;;;;;;;21.16;68.82;98480.34;1706505;82;20953;-42
2021/07/04 00:07:07;;;;;;;7.80;4.95;;;;;;;21.12;68.87;98479.69;1712647;83;21032;-42
2021/07/04 00:09:34;;;;;;;5.75;5.08;;;;;;;21.06;68.93;98479.50;1705338;82;21056;-42
2021/07/04 00:12:01;;;;;;;6.55;4.47;;;;;;;20.99;69.02;98479.02;1699893;84;21088;-42
2021/07/04 00:14:28;;;;;;;6.00;4.92;;;;;;;20.95;69.20;98482.52;1699993;84;21489;-42
2021/07/04 00:16:56;;;;;;;4.92;4.50;;;;;;;20.97;69.18;98487.72;1684643;83;20989;-42
2021/07/04 00:19:23;;;;;;;5.62;5.00;;;;;;;20.99;69.21;98488.05;1707193;83;20946;-42
2021/07/04 00:21:50;;;;;;;6.70;5.40;;;;;;;21.01;69.20;98493.86;1695914;83;21859;-42
2021/07/04 00:24:17;;;;;;;5.37;4.87;;;;;;;20.96;69.18;98493.06;1683747;85;21114;-42
2021/07/04 00:26:44;;;;;;;5.62;4.85;;;;;;;20.90;69.29;98497.64;1699033;82;21961;-42
2021/07/04 00:29:10;;;;;;;5.75;5.25;;;;;;;20.85;69.50;98494.09;1712399;83;21897;-42
2021/07/04 00:31:37;;;;;;;9.00;5.30;;;;;;;20.82;69.60;98492.21;1712331;82;21036;-42
2021/07/04 00:34:04;;;;;;;6.25;5.58;;;;;;;20.76;69.80;98489.28;1704057;82;21084;-42
2021/07/04 00:36:31;;;;;;;7.35;5.62;;;;;;;20.73;69.85;98485.27;1698746;83;21037;-42
2021/07/04 00:38:57;;;;;;;6.05;4.45;;;;;;;20.68;69.97;98483.08;1683789;85;21150;-42
2021/07/04 00:41:25;;;;;;;7.65;5.12;;;;;;;20.70;70.09;98486.17;1698455;83;21529;-41
2021/07/04 00:43:51;;;;;;;6.17;5.55;;;;;;;20.76;70.01;98487.14;1714701;83;21011;-42
2021/07/04 00:46:18;;;;;;;6.12;4.92;;;;;;;20.77;69.81;98491.41;1700259;83;20929;-41
2021/07/04 00:48:45;;;;;;;6.90;5.22;;;;;;;20.79;69.72;98493.12;1724305;80;21084;-40
2021/07/04 00:51:12;;;;;;;6.78;4.90;;;;;;;20.85;69.51;98495.47;1720930;83;21176;-41
2021/07/04 00:53:39;;;;;;;7.22;5.45;;;;;;;20.91;69.33;98490.91;1686071;85;21494;-42
2021/07/04 00:56:06;;;;;;;6.55;5.72;;;;;;;20.66;69.10;98449.73;1683370;83;21092;-41
2021/07/04 00:58:33;;;;;;;7.40;5.37;;;;;;;20.90;69.16;98492.73;1714215;83;21001;-42
2021/07/04 01:01:02;;;;;;;6.33;5.42;;;;;;;20.89;69.20;98491.97;1708047;83;21994;-41
2021/07/04 01:03:30;;;;;;;11.12;5.47;;;;;;;20.88;69.11;98490.42;1698560;83;21203;-42
2021/07/04 01:05:57;;;;;;;6.37;5.50;;;;;;;20.85;69.21;98489.95;1699840;84;20921;-42
2021/07/04 01:08:24;;;;;;;6.60;5.58;;;;;;;20.86;69.18;98485.98;1684355;84;21032;-42
2021/07/04 01:10:52;;;;;;;11.80;6.12;;;;;;;20.85;69.19;98482.30;1709756;83;21496;-42
2021/07/04 01:13:20;;;;;;;6.97;5.90;;;;;;;20.76;69.28;98478.27;1709642;83;21026;-42
2021/07/04 01:15:49;;;;;;;7.60;5.40;;;;;;;20.65;69.48;98476.50;1708910;84;21138;-42
2021/07/04 01:18:17;;;;;;;6.85;5.55;;;;;;;20.63;69.64;98479.53;1694417;83;21008;-42
2021/07/04 01:20:46;;;;;;;7.95;5.30;;;;;;;20.63;69.65;98474.02;1709022;83;21649;-42
2021/07/04 01:23:15;;;;;;;8.30;5.62;;;;;;;20.62;69.73;98473.25;1683419;84;21050;-42
2021/07/04 01:25:49;;;;;;;9.75;5.75;;;;;;;20.58;69.87;98469.86;1709479;84;20895;-42
2021/07/04 01:28:17;;;;;;;7.95;5.55;;;;;;;20.54;69.98;98476.70;1707838;82;21209;-42
2021/07/04 01:30:49;;;;;;;6.87;5.67;;;;;;;20.45;70.29;98476.64;1703611;82;21072;-42
2021/07/04 01:33:16;;;;;;;6.42;5.70;;;;;;;20.38;70.39;98479.80;1691233;83;21559;-42
2021/07/04 01:35:43;;;;;;;7.58;6.08;;;;;;;20.35;70.61;98467.53;1701604;84;21060;-42
2021/07/04 01:38:09;;;;;;;6.67;5.97;;;;;;;20.27;70.89;98471.13;1692916;83;21010;-43
2021/07/04 01:40:38;;;;;;;7.25;6.33;;;;;;;20.23;71.02;98472.47;1681334;85;21101;-42
2021/07/04 01:43:05;;;;;;;7.47;5.95;;;;;;;20.16;71.13;98476.22;1681975;82;21095;-42
2021/07/04 01:45:36;;;;;;;7.25;5.80;;;;;;;20.13;71.26;98477.12;1675222;83;21008;-42
2021/07/04 01:48:05;;;;;;;7.62;6.15;;;;;;;20.12;71.53;98478.33;1660810;83;21587;-42
2021/07/04 01:50:39;;;;;;;7.53;6.33;;;;;;;20.13;71.81;98482.63;1652810;85;21123;-42
2021/07/04 01:53:06;;;;;;;7.62;6.10;;;;;;;20.13;71.88;98472.99;1678680;85;21757;-43
2021/07/04 01:55:33;;;;;;;7.28;5.97;;;;;;;20.14;72.24;98473.77;1678597;85;20981;-42
2021/07/04 01:58:01;;;;;;;6.25;5.65;;;;;;;20.21;72.36;98470.15;1678780;84;21039;-42
2021/07/04 02:00:33;;;;;;;6.92;6.30;;;;;;;20.29;72.45;98465.16;1700517;84;21098;-42
2021/07/04 02:03:09;;;;;;;7.10;6.40;;;;;;;20.33;72.38;98463.10;1707360;83;21026;-41
2021/07/04 02:05:38;;;;;;;8.65;6.12;;;;;;;20.31;72.51;98467.67;1699192;84;21108;-42
2021/07/04 02:08:07;;;;;;;7.00;6.30;;;;;;;20.33;72.60;98465.86;1750795;82;21012;-42
2021/07/04 02:10:37;;;;;;;8.03;6.12;;;;;;;20.44;72.18;98469.59;1686087;83;20944;-42
2021/07/04 02:13:06;;;;;;;8.15;6.60;;;;;;;20.54;71.83;98471.20;1721330;82;21500;-42
2021/07/04 02:15:36;;;;;;;8.63;6.55;;;;;;;20.58;71.44;98470.46;1742667;80;21035;-42
2021/07/04 02:18:10;;;;;;;7.62;6.30;;;;;;;20.64;71.25;98468.67;1771450;80;21082;-42
2021/07/04 02:20:44;;;;;;;6.10;5.50;;;;;;;20.72;70.89;98476.86;1725547;80;20982;-42
2021/07/04 02:23:26;;;;;;;10.23;5.85;;;;;;;20.79;70.53;98473.83;1714796;83;20952;-42
2021/07/04 02:26:01;;;;;;;7.75;6.72;;;;;;;20.81;70.44;98479.67;1750466;81;21016;-42
2021/07/04 02:28:30;;;;;;;7.50;6.80;;;;;;;20.77;70.65;98484.52;1715394;83;21049;-42
2021/07/04 02:30:59;;;;;;;7.33;6.60;;;;;;;20.73;70.66;98490.16;1710127;83;21206;-42
2021/07/04 02:33:26;;;;;;;6.83;6.22;;;;;;;20.70;70.71;98495.20;1734494;80;20992;-42
2021/07/04 02:35:58;;;;;;;8.70;6.60;;;;;;;20.75;70.68;98491.11;1751248;82;21495;-42
2021/07/04 02:38:25;;;;;;;11.45;7.00;;;;;;;20.83;70.48;98501.41;1751001;82;21014;-42
2021/07/04 02:40:54;;;;;;;8.30;7.55;;;;;;;20.88;70.36;98506.18;1750956;82;21053;-42
2021/07/04 02:43:23;;;;;;;7.97;7.15;;;;;;;20.89;70.21;98504.36;1690160;83;21089;-42
2021/07/04 02:45:51;;;;;;;8.93;7.13;;;;;;;20.93;70.02;98506.38;1725430;80;20965;-42
2021/07/04 02:48:19;;;;;;;8.15;7.20;;;;;;;20.91;70.06;98504.70;1750930;81;20970;-42
2021/07/04 02:50:50;;;;;;;8.70;6.97;;;;;;;20.89;70.08;98508.49;1750413;82;20922;-42
2021/07/04 02:53:18;;;;;;;8.10;7.30;;;;;;;20.86;70.26;98510.01;1750219;80;21025;-42
2021/07/04 02:55:47;;;;;;;8.75;6.80;;;;;;;20.82;70.34;98510.89;1691590;84;21059;-42
2021/07/04 02:58:15;;;;;;;9.15;6.62;;;;;;;20.80;70.56;98511.96;1699970;84;21023;-42
2021/07/04 03:00:44;;;;;;;9.30;7.35;;;;;;;20.87;70.63;98524.69;1691201;84;21573;-42
2021/07/04 03:03:10;;;;;;;8.65;7.72;;;;;;;20.98;70.45;98527.84;1680971;84;21569;-42
2021/07/04 03:05:38;;;;;;;8.50;7.67;;;;;;;21.01;70.17;98535.20;1696517;84;21045;-42
2021/07/04 03:08:06;;;;;;;9.50;7.67;;;;;;;20.98;70.13;98533.95;1691439;84;21146;-42
2021/07/04 03:10:33;;;;;;;7.58;6.90;;;;;;;20.97;70.18;98529.66;1674705;84;21049;-42
2021/07/04 03:13:00;;;;;;;8.10;7.28;;;;;;;21.00;70.15;98538.42;1701026;84;21892;-42
2021/07/04 03:15:27;;;;;;;8.33;7.42;;;;;;;21.03;70.14;98533.38;1675839;84;21071;-42
2021/07/04 03:17:56;;;;;;;10.20;7.80;;;;;;;21.03;70.07;98536.91;1690970;84;21049;-42
2021/07/04 03:20:25;;;;;;;12.45;8.60;;;;;;;21.04;70.04;98538.45;1694263;84;21595;-43
2021/07/04 03:22:54;;;;;;;10.13;7.10;;;;;;;21.11;69.92;98534.05;1715152;83;21019;-43
2021/07/04 03:25:21;;;;;;;9.75;8.03;;;;;;;21.15;69.83;98535.34;1687859;84;21228;-43
2021/07/04 03:27:48;;;;;;;10.72;8.50;;;;;;;21.15;69.81;98538.87;1702030;84;21053;-44
2021/07/04 03:30:19;;;;;;;10.80;8.55;;;;;;;21.14;70.12;98540.69;1702533;84;21096;-43
2021/07/04 03:32:47;;;;;;;8.88;7.97;;;;;;;21.12;70.12;98549.37;1699243;84;21742;-43
2021/07/04 03:35:15;;;;;;;;;;;;;;;21.12;70.37;98543.86;1665659;84;21057;-42
2021/07/04 03:37:44;;;;;;;13.35;8.63;;;;;;;21.16;70.31;98545.89;1702190;84;20174;-42
2021/07/04 03:40:14;;;;;;;12.15;9.28;;;;;;;21.11;70.66;98549.20;1702185;84;21107;-42
2021/07/04 03:42:43;;;;;;;11.12;9.50;;;;;;;21.14;70.69;98553.09;1702062;84;21518;-42
2021/07/04 03:45:11;;;;;;;11.90;9.70;;;;;;;21.12;70.87;98551.34;1700278;82;21133;-42
2021/07/04 03:47:40;;;;;;;11.60;9.08;;;;;;;21.13;70.80;98555.08;1674819;84;21564;-42
2021/07/04 03:50:10;;;;;;;12.47;10.23;;;;;;;21.15;70.66;98554.03;1680879;84;21603;-43
2021/07/04 03:52:41;;;;;;;12.95;9.93;;;;;;;21.21;70.69;98551.44;1690302;84;20950;-43
2021/07/04 03:55:12;;;;;;;16.87;11.10;;;;;;;21.28;70.82;98558.69;1718477;83;21027;-43
2021/07/04 03:57:41;;;;;;;16.37;10.58;;;;;;;21.32;70.63;98552.42;1678347;84;21779;-43
2021/07/04 04:00:12;;;;;;;13.68;11.50;;;;;;;21.35;70.71;98564.69;1702077;84;21002;-43
2021/07/04 04:02:47;;;;;;;13.93;11.57;;;;;;;21.36;70.74;98555.20;1696300;84;21061;-43
2021/07/04 04:05:16;;;;;;;14.38;11.97;;;;;;;21.38;70.96;98550.63;1673794;82;21097;-43
2021/07/04 04:07:46;;;;;;;15.83;12.78;;;;;;;21.41;71.26;98554.62;1716972;82;20944;-42
2021/07/04 04:10:14;;;;;;;14.60;11.78;;;;;;;21.46;71.09;98551.88;1673776;85;22206;-43
2021/07/04 04:12:43;;;;;;;14.15;12.47;;;;;;;21.48;71.36;98550.83;1673853;85;21853;-42
2021/07/04 04:15:12;;;;;;;14.07;12.68;;;;;;;21.60;71.11;98556.85;1691290;84;21034;-43
2021/07/04 04:17:41;;;;;;;13.10;11.85;;;;;;;21.66;70.95;98556.43;1694383;82;21502;-43
2021/07/04 04:20:11;;;;;;;13.18;11.88;;;;;;;21.68;70.58;98558.13;1696943;83;21117;-44
2021/07/04 04:22:39;;;;;;;14.78;10.98;;;;;;;21.64;70.69;98554.72;1691200;83;21782;-43
2021/07/04 04:25:07;;;;;;;11.88;10.68;;;;;;;21.69;70.72;98560.42;1690540;82;20985;-42
2021/07/04 04:27:36;;;;;;;12.90;11.70;;;;;;;21.76;70.52;98553.87;1703154;82;20996;-43
2021/07/04 04:30:06;;;;;;;12.88;11.55;;;;;;;21.85;70.47;98555.89;1692566;82;21290;-43
2021/07/04 04:32:33;;;;;;;;;;;;;;;21.91;70.41;98559.59;1676492;84;21058;-43
2021/07/04 04:35:01;;;;;;;11.25;9.95;;;;;;;22.00;70.55;98562.41;1712714;82;21132;-43
2021/07/04 04:37:29;;;;;;;14.10;10.10;;;;;;;22.01;70.38;98566.72;1719581;82;21103;-43
2021/07/04 04:39:58;;;;;;;11.75;10.55;;;;;;;22.09;70.16;98565.20;1698638;82;21647;-43
2021/07/04 04:42:24;;;;;;;10.68;9.68;;;;;;;22.12;70.03;98566.29;1677288;83;21623;-43
2021/07/04 04:44:51;;;;;;;11.65;10.32;;;;;;;22.11;70.40;98566.90;1711912;83;21013;-43
2021/07/04 04:47:18;;;;;;;11.60;10.45;;;;;;;22.15;70.55;98565.37;1715479;83;21109;-44
2021/07/04 04:49:44;;;;;;;12.23;10.32;;;;;;;22.19;70.65;98561.84;1687725;83;21526;-43
2021/07/04 04:52:13;;;;;;;11.12;9.90;;;;;;;22.31;70.53;98566.48;1707901;83;21024;-43
2021/07/04 04:54:40;;;;;;;12.13;10.78;;;;;;;22.44;70.06;98565.73;1691992;83;21548;-44
2021/07/04 04:57:07;;;;;;;12.03;10.75;;;;;;;22.56;69.99;98570.34;1682337;83;21039;-44
2021/07/04 04:59:36;;;;;;;13.88;10.38;;;;;;;22.67;69.80;98573.42;1693331;84;21764;-44
2021/07/04 05:02:04;;;;;;;13.32;11.15;;;;;;;22.75;69.77;98573.30;1691863;84;21009;-43
2021/07/04 05:04:31;;;;;;;12.30;11.03;;;;;;;22.84;69.60;98571.94;1688188;84;21060;-43
2021/07/04 05:06:57;;;;;;;12.90;11.60;;;;;;;22.93;69.36;98574.70;1682181;83;21045;-43
2021/07/04 05:09:25;;;;;;;12.28;11.05;;;;;;;23.00;69.21;98570.83;1692145;84;21062;-43
2021/07/04 05:11:54;;;;;;;12.28;10.90;;;;;;;23.05;69.28;98570.83;1687896;84;21146;-43
2021/07/04 05:14:21;;;;;;;12.03;10.65;;;;;;;23.11;68.92;98566.22;1685905;82;21554;-43
2021/07/04 05:16:49;;;;;;;12.40;11.10;;;;;;;23.22;68.86;98565.14;1681023;83;21546;-43
2021/07/04 05:19:16;;;;;;;13.40;10.53;;;;;;;23.33;68.39;98564.05;1695327;83;21073;-43
2021/07/04 05:21:44;;;;;;;12.20;10.70;;;;;;;23.37;68.16;98561.27;1692081;83;20968;-43
2021/07/04 05:24:12;;;;;;;10.35;9.35;;;;;;;23.45;68.12;98563.11;1707796;83;21148;-43
2021/07/04 05:26:39;;;;;;;10.75;9.55;;;;;;;23.50;67.74;98563.09;1757542;80;20973;-44
2021/07/04 05:29:06;;;;;;;11.97;9.13;;;;;;;23.58;67.68;98559.53;1746440;82;21546;-44
2021/07/04 05:31:33;;;;;;;11.68;9.58;;;;;;;23.65;67.43;98566.13;1749360;81;21100;-43
2021/07/04 05:34:01;;;;;;;12.25;11.03;;;;;;;23.71;67.56;98569.80;1750978;82;20993;-43
2021/07/04 05:36:27;;;;;;;11.05;10.05;;;;;;;23.79;67.29;98572.99;1751221;82;21121;-43
2021/07/04 05:38:54;;;;;;;10.23;9.23;;;;;;;23.86;66.68;98574.05;1750911;81;21067;-42
2021/07/04 05:41:20;;;;;;;10.38;9.38;;;;;;;23.95;66.52;98566.31;1741689;82;21031;-42
2021/07/04 05:43:48;;;;;;;11.28;10.18;;;;;;;24.02;66.26;98572.27;1749688;82;21076;-42
2021/07/04 05:46:14;;;;;;;11.30;10.05;;;;;;;24.06;65.94;98576.27;1751066;81;21017;-42
2021/07/04 05:48:43;;;;;;;10.80;9.80;;;;;;;24.06;65.62;98573.50;1750943;81;21191;-42
2021/07/04 05:51:11;;;;;;;9.25;8.38;;;;;;;24.04;65.63;98573.96;1744374;82;21511;-42
2021/07/04 05:53:38;;;;;;;10.88;9.43;;;;;;;24.06;65.55;98576.27;1742753;81;21105;-42
2021/07/04 05:56:05;;;;;;;9.40;8.50;;;;;;;24.11;65.37;98572.83;1735640;81;21009;-44
2021/07/04 05:58:31;;;;;;;9.85;8.23;;;;;;;24.12;65.29;98569.60;1741498;82;21030;-44
2021/07/04 06:00:58;;;;;;;9.63;8.65;;;;;;;24.10;64.87;98572.09;1735894;81;21845;-42
2021/07/04 06:03:27;;;;;;;9.63;8.63;;;;;;;24.11;64.96;98574.22;1749997;81;21025;-42
2021/07/04 06:05:54;;;;;;;8.88;7.78;;;;;;;24.14;65.08;98569.91;1755379;81;21566;-43
2021/07/04 06:08:21;;;;;;;9.10;8.30;;;;;;;24.20;64.76;98571.45;1753314;81;20961;-43
2021/07/04 06:10:51;;;;;;;9.43;8.58;;;;;;;24.26;64.61;98568.16;1763794;81;21073;-43
2021/07/04 06:13:19;;;;;;;9.65;8.58;;;;;;;24.28;64.59;98569.09;1763879;81;21122;-42
2021/07/04 06:15:46;;;;;;;9.25;8.35;;;;;;;24.30;64.45;98572.94;1756048;81;20974;-42
2021/07/04 06:18:12;;;;;;;8.88;8.08;;;;;;;24.32;64.67;98563.52;1743092;81;21056;-42
2021/07/04 06:20:39;;;;;;;9.25;8.30;;;;;;;24.39;64.49;98567.33;1742924;82;21539;-42
2021/07/04 06:23:05;;;;;;;9.18;8.28;;;;;;;24.46;63.97;98564.19;1732731;82;21052;-42
2021/07/04 06:25:33;;;;;;;9.18;8.38;;;;;;;24.50;63.75;98564.77;1742796;81;21017;-42
2021/07/04 06:28:00;;;;;;;8.63;7.83;;;;;;;24.52;64.03;98558.15;1743020;81;21588;-42
2021/07/04 06:30:27;;;;;;;10.05;8.93;;;;;;;24.57;63.84;98560.89;1743220;81;21033;-43
2021/07/04 06:32:53;;;;;;;9.50;8.63;;;;;;;24.65;63.93;98553.73;1742265;81;21069;-42
2021/07/04 06:35:20;;;;;;;9.25;7.83;;;;;;;24.72;63.53;98554.77;1745246;81;21516;-43
2021/07/04 06:37:47;;;;;;;8.55;7.75;;;;;;;24.72;63.60;98556.77;1751303;81;21139;-42
2021/07/04 06:40:15;;;;;;;9.35;8.45;;;;;;;24.75;63.87;98551.04;1763533;81;20997;-42
2021/07/04 06:42:42;;;;;;;8.60;7.80;;;;;;;24.84;64.32;98552.34;1762123;81;21519;-42
2021/07/04 06:45:11;;;;;;;8.68;7.85;;;;;;;24.96;63.81;98554.13;1759267;80;21045;-42
2021/07/04 06:47:43;;;;;;;10.20;8.28;;;;;;;25.05;63.40;98547.73;1729648;80;21041;-42
2021/07/04 06:50:11;;;;;;;8.00;7.20;;;;;;;25.13;63.34;98548.88;1738898;81;21107;-43
2021/07/04 06:52:39;;;;;;;7.90;7.20;;;;;;;25.24;62.98;98545.53;1701761;83;21057;-43
2021/07/04 06:55:07;;;;;;;8.98;8.08;;;;;;;25.35;62.36;98544.34;1710146;83;20993;-43
2021/07/04 06:57:34;;;;;;;9.28;7.30;;;;;;;25.42;62.29;98551.66;1719699;83;21093;-42
2021/07/04 07:00:05;;;;;;;7.95;7.00;;;;;;;25.47;62.50;98555.77;1719524;83;21026;-42
2021/07/04 07:02:31;;;;;;;7.35;6.65;;;;;;;25.55;61.76;98548.62;1683910;82;21124;-42
2021/07/04 07:04:58;;;;;;;6.60;5.92;;;;;;;25.59;61.56;98550.58;1714294;82;20966;-42
2021/07/04 07:07:24;;;;;;;8.20;6.03;;;;;;;25.67;61.46;98552.33;1717766;83;21511;-42
2021/07/04 07:09:53;;;;;;;9.30;6.25;;;;;;;25.79;61.52;98553.42;1735138;82;20902;-42
2021/07/04 07:12:20;;;;;;;6.85;6.15;;;;;;;25.94;61.31;98547.84;1707271;82;21080;-43
2021/07/04 07:14:47;;;;;;;7.10;6.45;;;;;;;26.12;60.40;98546.81;1703793;84;21970;-42
2021/07/04 07:17:15;;;;;;;6.85;6.15;;;;;;;26.19;60.02;98549.20;1723752;82;21039;-42
2021/07/04 07:19:42;;;;;;;7.00;6.40;;;;;;;26.19;59.99;98548.55;1718939;82;21048;-43
2021/07/04 07:22:11;;;;;;;7.27;6.57;;;;;;;26.21;60.24;98550.86;1683649;84;21638;-42
2021/07/04 07:24:38;;;;;;;7.40;6.70;;;;;;;26.27;59.85;98545.55;1689893;84;21999;-42
2021/07/04 07:27:05;;;;;;;6.83;6.15;;;;;;;26.29;59.95;98547.83;1717903;82;21141;-42
2021/07/04 07:29:33;;;;;;;7.78;6.87;;;;;;;26.34;60.21;98552.07;1696834;82;21024;-42
2021/07/04 07:32:01;;;;;;;6.72;6.12;;;;;;;26.43;59.34;98542.09;1708935;82;21534;-42
2021/07/04 07:34:28;;;;;;;6.83;6.22;;;;;;;26.48;59.34;98544.17;1691000;83;21102;-42
2021/07/04 07:36:55;;;;;;;7.30;6.60;;;;;;;26.49;59.21;98542.90;1701640;84;21034;-44
2021/07/04 07:39:23;;;;;;;7.90;6.28;;;;;;;26.57;59.05;98548.97;1701066;84;21134;-44
2021/07/04 07:41:49;;;;;;;7.28;6.58;;;;;;;26.65;58.99;98549.30;1722881;82;21012;-44
2021/07/04 07:44:17;;;;;;;6.55;5.87;;;;;;;26.79;58.75;98547.05;1700111;84;21468;-44
2021/07/04 07:46:48;;;;;;;6.80;6.20;;;;;;;26.96;58.99;98553.61;1696857;84;21054;-42
2021/07/04 07:49:16;;;;;;;7.60;6.90;;;;;;;27.05;58.11;98556.23;1718266;82;21091;-42
2021/07/04 07:51:49;;;;;;;7.78;7.08;;;;;;;27.09;57.71;98552.59;1707328;82;21260;-43
2021/07/04 07:54:14;;;;;;;8.08;7.28;;;;;;;27.07;57.78;98549.53;1705304;82;20988;-48
2021/07/04 07:56:41;;;;;;;7.80;6.97;;;;;;;26.95;57.75;98550.69;1680909;82;20980;-47
2021/07/04 07:59:08;;;;;;;7.72;7.03;;;;;;;26.85;58.33;98561.03;1725889;80;21523;-45
2021/07/04 08:01:34;;;;;;;7.40;6.80;;;;;;;26.82;58.76;98556.56;1747154;80;21037;-45
2021/07/04 08:04:03;;;;;;;7.10;6.35;;;;;;;26.89;58.71;98560.21;1703674;83;21144;-45
2021/07/04 08:06:30;;;;;;;7.25;6.60;;;;;;;26.94;57.78;98563.06;1700396;84;21078;-45
2021/07/04 08:08:57;;;;;;;7.10;6.40;;;;;;;26.86;58.28;98557.80;1706399;82;21000;-44
2021/07/04 08:11:26;;;;;;;7.53;6.83;;;;;;;26.80;58.28;98567.44;1741663;81;21069;-45
2021/07/04 08:13:53;;;;;;;7.03;6.42;;;;;;;26.75;58.36;98570.14;1738740;80;21053;-45
2021/07/04 08:16:19;;;;;;;7.47;6.53;;;;;;;26.66;58.73;98566.89;1743515;82;21163;-45
2021/07/04 08:18:46;;;;;;;7.75;7.03;;;;;;;26.57;59.36;98567.03;1741310;81;21066;-45
2021/07/04 08:21:13;;;;;;;7.40;6.70;;;;;;;26.59;59.82;98573.48;1752734;81;20985;-45
2021/07/04 08:23:40;;;;;;;7.58;6.87;;;;;;;26.69;59.82;98563.75;1763785;81;21499;-45
2021/07/04 08:26:06;;;;;;;7.80;7.00;;;;;;;26.79;59.23;98555.40;1761243;81;21120;-45
2021/07/04 08:28:33;;;;;;;8.23;7.42;;;;;;;26.86;59.09;98558.39;1744458;80;21047;-45
2021/07/04 08:31:00;;;;;;;8.35;7.58;;;;;;;26.95;58.75;98575.72;1734000;80;21056;-45
2021/07/04 08:33:26;;;;;;;8.48;7.60;;;;;;;27.07;58.24;98571.02;1737332;80;21076;-45
2021/07/04 08:35:53;;;;;;;8.55;7.65;;;;;;;27.15;58.88;98573.53;1734266;82;20953;-45
2021/07/04 08:38:19;;;;;;;7.65;6.95;;;;;;;27.29;58.40;98570.49;1734168;82;21477;-45
2021/07/04 08:40:46;;;;;;;8.48;7.45;;;;;;;27.46;57.72;98571.39;1743010;82;21112;-45
2021/07/04 08:43:27;;;;;;;8.68;7.92;;;;;;;27.59;57.70;98573.20;1743574;82;20985;-45
2021/07/04 08:45:54;;;;;;;9.18;8.33;;;;;;;27.64;57.14;98571.83;1743274;82;21571;-45
2021/07/04 08:48:21;;;;;;;8.28;7.47;;;;;;;27.62;57.13;98570.81;1744171;81;21002;-45
2021/07/04 08:50:49;;;;;;;9.05;8.15;;;;;;;27.64;57.10;98571.09;1739645;80;21349;-45
2021/07/04 08:53:16;;;;;;;8.33;7.62;;;;;;;27.64;56.53;98571.09;1740772;80;21132;-45
2021/07/04 08:55:45;;;;;;;8.78;7.87;;;;;;;27.61;56.80;98565.87;1730851;80;21029;-45
2021/07/04 08:58:12;;;;;;;9.20;8.30;;;;;;;27.63;56.88;98572.34;1732565;80;22112;-45
2021/07/04 09:00:38;;;;;;;8.45;7.65;;;;;;;27.69;57.86;98575.95;1764205;80;20973;-44
2021/07/04 09:03:25;;;;;;;8.15;7.42;;;;;;;27.82;56.96;98576.92;1762898;81;21538;-45
2021/07/04 09:05:52;;;;;;;8.58;7.78;;;;;;;28.00;56.29;98575.14;1769120;81;21510;-45
2021/07/04 09:10:25;;;;;;;8.35;7.55;;;;;;;28.30;56.08;98579.16;1787951;79;22636;-45
2021/07/04 09:12:54;;;;;;;8.20;7.50;;;;;;;28.38;55.87;98576.66;1759336;80;21024;-45
2021/07/04 09:15:26;;;;;;;10.00;8.15;;;;;;;28.53;55.37;98578.63;1756928;81;21155;-45
2021/07/04 09:17:59;;;;;;;7.83;7.12;;;;;;;28.60;55.02;98579.56;1756662;80;20989;-45
2021/07/04 09:20:37;;;;;;;8.95;7.58;;;;;;;28.64;54.80;98577.92;1747570;80;21491;-45
2021/07/04 09:23:04;;;;;;;8.05;7.35;;;;;;;28.67;54.37;98571.33;1740888;80;20985;-45
2021/07/04 09:25:39;;;;;;;8.33;7.53;;;;;;;28.72;53.90;98571.39;1693428;83;20972;-45
2021/07/04 09:28:10;;;;;;;8.10;7.30;;;;;;;28.74;53.00;98568.11;1709808;83;21984;-45
2021/07/04 09:30:47;;;;;;;8.10;7.40;;;;;;;28.75;54.21;98563.42;1701359;83;20981;-45
2021/07/04 09:33:30;;;;;;;8.43;7.62;;;;;;;28.78;54.44;98561.02;1708284;82;20930;-45
2021/07/04 09:36:02;;;;;;;10.58;6.97;;;;;;;28.85;54.67;98554.94;1713013;83;21068;-45
2021/07/04 09:38:37;;;;;;;7.87;7.12;;;;;;;28.94;53.53;98558.16;1709655;83;22560;-45
2021/07/04 09:41:07;;;;;;;8.08;7.20;;;;;;;28.88;53.07;98555.97;1703995;83;21874;-45
2021/07/04 09:43:34;;;;;;;8.25;7.45;;;;;;;28.57;52.97;98517.03;1716932;82;21550;-45
2021/07/04 09:46:08;;;;;;;7.47;6.83;;;;;;;28.66;53.11;98555.88;1705076;83;21065;-45
2021/07/04 09:48:40;;;;;;;8.23;7.42;;;;;;;28.56;53.18;98556.73;1706589;83;21114;-45
2021/07/04 09:51:11;;;;;;;8.35;7.55;;;;;;;28.50;53.90;98558.10;1715240;83;20953;-45
2021/07/04 09:53:44;;;;;;;8.03;7.33;;;;;;;28.52;53.58;98556.19;1702521;83;21118;-45
2021/07/04 09:56:20;;;;;;;8.53;7.80;;;;;;;28.48;54.64;98551.48;1716114;82;21027;-45
2021/07/04 09:58:52;;;;;;;7.90;7.20;;;;;;;28.50;54.80;98548.34;1737590;82;21012;-45
2021/07/04 10:01:46;;;;;;;7.35;6.65;;;;;;;28.55;54.25;98551.02;1690935;83;21096;-45
2021/07/04 10:04:29;;;;;;;7.47;6.78;;;;;;;28.61;53.59;98549.00;1699703;83;21528;-45
2021/07/04 10:06:58;;;;;;;7.75;7.05;;;;;;;28.62;52.77;98540.77;1705701;83;21151;-45
2021/07/04 10:09:25;;;;;;;8.28;7.45;;;;;;;28.64;53.63;98536.85;1720239;83;21064;-45
2021/07/04 10:11:52;;;;;;;7.70;7.00;;;;;;;28.78;52.24;98534.52;1713315;83;20949;-44
2021/07/04 10:14:19;;;;;;;7.65;6.95;;;;;;;28.86;52.69;98532.75;1689139;84;21051;-45
2021/07/04 10:16:48;;;;;;;7.03;6.33;;;;;;;29.03;53.55;98534.83;1740473;80;21610;-45
2021/07/04 10:19:24;;;;;;;7.87;7.17;;;;;;;29.19;53.17;98532.70;1731346;80;21127;-45
2021/07/04 10:22:02;;;;;;;7.12;6.53;;;;;;;29.33;52.40;98524.12;1707281;83;20977;-45
2021/07/04 10:24:29;;;;;;;7.75;6.90;;;;;;;29.47;52.19;98524.36;1725105;82;20994;-45
2021/07/04 10:26:57;;;;;;;7.00;6.35;;;;;;;29.62;51.51;98527.03;1743273;81;21056;-45
2021/07/04 10:29:27;;;;;;;6.75;6.15;;;;;;;29.80;51.08;98527.89;1732526;80;21028;-45
2021/07/04 10:32:07;;;;;;;7.40;6.70;;;;;;;29.98;50.88;98524.45;1722862;80;21758;-45
2021/07/04 10:34:43;;;;;;;;;;;;;;;30.16;50.53;98521.12;1681034;84;20985;-44
2021/07/04 10:37:13;;;;;;;7.42;6.37;;;;;;;30.26;49.24;98516.73;1674097;84;20189;-45
2021/07/04 10:39:39;;;;;;;6.97;6.28;;;;;;;30.15;48.86;98512.59;1663157;84;21055;-45
2021/07/04 10:42:11;;;;;;;7.10;6.40;;;;;;;30.18;49.25;98514.36;1730809;80;21724;-45
2021/07/04 10:44:46;;;;;;;8.23;7.03;;;;;;;30.31;47.55;98511.77;1668010;83;21106;-45
2021/07/04 10:47:20;;;;;;;7.67;6.97;;;;;;;30.22;48.67;98509.25;1700232;84;21108;-45
2021/07/04 10:49:56;;;;;;;6.90;6.30;;;;;;;30.22;48.74;98507.86;1675148;82;22052;-45
2021/07/04 10:52:42;;;;;;;7.37;6.67;;;;;;;30.28;49.72;98507.20;1713712;83;21560;-45
2021/07/04 10:55:14;;;;;;;7.05;6.37;;;;;;;30.49;48.56;98506.27;1715015;82;21390;-45
2021/07/04 10:57:54;;;;;;;6.67;5.97;;;;;;;30.70;48.12;98503.85;1707466;83;22380;-45
2021/07/04 11:00:24;;;;;;;6.47;5.87;;;;;;;30.87;47.61;98508.73;1739892;82;20944;-45
2021/07/04 11:02:59;;;;;;;;;;;;;;;31.08;45.92;98505.70;1733307;82;21074;-45
2021/07/04 11:05:39;;;;;;;6.62;5.87;;;;;;;31.24;45.87;98493.60;1725278;81;20275;-45
2021/07/04 11:08:25;;;;;;;5.90;5.40;;;;;;;31.35;45.71;98497.72;1743529;81;20978;-45
2021/07/04 11:10:59;;;;;;;7.03;6.33;;;;;;;31.55;46.40;98487.36;1723871;81;21206;-46
2021/07/04 11:13:35;;;;;;;6.42;5.83;;;;;;;31.69;44.88;98496.05;1710052;82;21533;-45
2021/07/04 11:16:16;;;;;;;6.92;6.22;;;;;;;31.71;45.05;98490.02;1715079;83;21030;-45
2021/07/04 11:18:55;;;;;;;6.20;5.60;;;;;;;31.77;44.86;98494.17;1697865;83;21611;-45
2021/07/04 11:21:45;;;;;;;6.50;5.33;;;;;;;31.77;45.30;98491.37;1692457;84;21789;-45
2021/07/04 11:24:17;;;;;;;6.17;5.50;;;;;;;31.90;44.00;98490.11;1692235;84;21135;-45
2021/07/04 11:26:46;;;;;;;6.83;5.53;;;;;;;31.83;44.58;98483.67;1692605;84;21062;-45
2021/07/04 11:29:12;;;;;;;5.95;5.45;;;;;;;31.83;44.81;98490.67;1674972;84;21601;-45
2021/07/04 11:31:43;;;;;;;6.58;5.97;;;;;;;31.89;44.87;98484.37;1692234;84;21006;-45
2021/07/04 11:34:09;;;;;;;6.28;5.67;;;;;;;32.00;45.19;98486.31;1701101;83;21086;-45
2021/07/04 11:36:36;;;;;;;7.17;5.80;;;;;;;32.16;44.93;98481.92;1697984;83;21158;-45
2021/07/04 11:39:13;;;;;;;5.65;5.15;;;;;;;32.30;44.80;98484.94;1720265;83;21217;-45
2021/07/04 11:41:47;;;;;;;6.15;5.55;;;;;;;32.55;44.15;98487.69;1721600;83;21459;-45
2021/07/04 11:44:16;;;;;;;6.15;5.55;;;;;;;32.87;44.47;98480.77;1721303;83;20978;-45